Pagina principale
METAR-TAF:

METAR-TAF

Aeroporti :

Aeroporto di Belgrado-Nikola Tesla

Belgrado, Serbia

latitudine: 44-49N, longitudine: 020-17E, altezza: 96 m

Osservazione

Il bollettino è stato emesso 37 minuti fa, alle 01:30 UTC
Vento 5 kt da sud/sud-est
Temperature 23°C
Umidità 89%
Pressione 1018 hPa
Visibilità 10 km o più
nessuna nube inferiore a 1500 m e nessun cumulonembo

METAR: LYBE 210130Z 15005KT CAVOK 23/21 Q1018 NOSIG

Ora: 04:07 (02:07 UTC)

Previsione

Il bollettino è stato emesso 3 ore e 7 minuti fa, alle 23:00 UTC
Previsione valida dal 21 alle 00 UTC al 21 alle 24 UTC
Vento 5 kt da nord/nord-est
Visibilità 10 km o più
nessuna nube inferiore a 1500 m e nessun cumulonembo
Evoluzione graduale
dal 21 alle 03 UTC al 21 alle 05 UTC
Vento 10 kt da sud-est

TAF: LYBE 202300Z 2100/2124 03005KT CAVOK TX37/2114Z TN22/2103Z BECMG 2103/2105 14010KT

Osservazioni e previsioni meteorologiche di più di 4000 aeroporti (messaggi METAR e TAF).

Le stazioni disponibili sono rappresentate dai dischi gialli e rossi sulla carta.

Puntare il mouse per vedere il nome della stazione.

Clicca sopra per visualizzare le osservazioni e previsioni meteorologiche.

Per cambiare la mappa : fare clic sui pulsanti verdi con una croce nera per ingrandire, il pulsante verde con un trattino per diminuire, o sulla freccia verde per le mappe adiacenti.


METAR-TAF: